Time;durP1;ratioP1;P1;durP2;ratioP2;P2;SDS_P1;SDS_P2;PMS_P1;PMS_P2;Temp;Humidity;BMP_temperature;BMP_pressure;BME280_temperature;BME280_humidity;BME280_pressure;Samples;Min_cycle;Max_cycle;Signal;HPM_P1;HPM_P2
2021/04/23 00:01:11;;;;;;;5.55;2.60;;;3.30;77.90;;;;;;5029452;28;20081;-65
2021/04/23 00:03:42;;;;;;;12.57;1.90;;;3.30;77.90;;;;;;5034518;28;20053;-66
2021/04/23 00:06:15;;;;;;;5.43;1.88;;;3.30;77.90;;;;;;5030920;28;20053;-65
2021/04/23 00:08:43;;;;;;;4.00;1.80;;;3.20;78.20;;;;;;5031646;28;20049;-65
2021/04/23 00:11:13;;;;;;;6.70;1.92;;;3.10;78.40;;;;;;5032402;28;21087;-65
2021/04/23 00:13:41;;;;;;;3.60;1.77;;;3.20;78.10;;;;;;5031608;28;20176;-65
2021/04/23 00:16:09;;;;;;;6.60;1.73;;;3.20;78.20;;;;;;5015433;28;20049;-65
2021/04/23 00:18:38;;;;;;;6.05;1.90;;;3.10;78.30;;;;;;5032577;28;20056;-65
2021/04/23 00:21:09;;;;;;;4.47;2.78;;;3.10;78.30;;;;;;5032057;28;20045;-65
2021/04/23 00:23:37;;;;;;;3.67;1.65;;;3.00;78.60;;;;;;5017338;28;20057;-64
2021/04/23 00:26:08;;;;;;;6.67;1.53;;;3.00;78.80;;;;;;5033394;28;20340;-65
2021/04/23 00:28:37;;;;;;;10.05;2.60;;;3.10;78.70;;;;;;5034174;28;20307;-65
2021/04/23 00:31:11;;;;;;;;;;;3.10;78.90;;;;;;5034924;28;20057;-65
2021/04/23 00:33:39;;;;;;;5.10;2.20;;;3.00;79.40;;;;;;5034076;28;19925;-65
2021/04/23 00:36:08;;;;;;;6.45;1.92;;;3.00;79.30;;;;;;5034864;28;20056;-65
2021/04/23 00:38:36;;;;;;;7.35;1.83;;;2.90;79.50;;;;;;5035547;28;20037;-66
2021/04/23 00:41:12;;;;;;;4.63;1.67;;;2.90;79.50;;;;;;5034049;28;20103;-66
2021/04/23 00:43:55;;;;;;;3.92;1.63;;;2.80;79.50;;;;;;5034454;28;20076;-65
2021/04/23 00:46:23;;;;;;;5.47;2.20;;;2.70;79.60;;;;;;5034787;28;20045;-65
2021/04/23 00:48:51;;;;;;;5.07;2.22;;;2.60;79.70;;;;;;5033867;28;20037;-65
2021/04/23 00:51:20;;;;;;;4.45;2.20;;;2.50;79.90;;;;;;5035315;28;20271;-65
2021/04/23 00:53:50;;;;;;;2.55;1.33;;;2.50;80.30;;;;;;5031435;28;20041;-65
2021/04/23 00:56:22;;;;;;;4.73;1.50;;;2.50;80.60;;;;;;5035066;28;20044;-65
2021/04/23 00:58:50;;;;;;;5.97;1.27;;;2.40;80.40;;;;;;5028777;28;20221;-65
2021/04/23 01:01:22;;;;;;;4.95;1.98;;;2.30;80.90;;;;;;5026461;28;20120;-64
2021/04/23 01:03:49;;;;;;;6.22;1.92;;;2.40;81.10;;;;;;5029790;28;20156;-66
2021/04/23 01:06:19;;;;;;;4.63;1.33;;;2.40;80.80;;;;;;5031660;28;20088;-65
2021/04/23 01:08:47;;;;;;;6.22;2.08;;;2.40;80.50;;;;;;5030757;28;20175;-65
2021/04/23 01:11:15;;;;;;;4.82;1.58;;;2.40;80.70;;;;;;5029397;28;20052;-65
2021/04/23 01:13:43;;;;;;;6.00;1.88;;;2.30;80.90;;;;;;5031358;28;20049;-65
2021/04/23 01:16:13;;;;;;;4.53;1.70;;;2.30;81.00;;;;;;5031049;28;20060;-66
2021/04/23 01:18:43;;;;;;;4.25;1.40;;;2.30;81.10;;;;;;5032136;28;20030;-66
2021/04/23 01:21:12;;;;;;;3.47;1.65;;;2.30;81.30;;;;;;5031516;28;20098;-67
2021/04/23 01:23:41;;;;;;;7.50;1.77;;;2.20;81.30;;;;;;5031705;28;20406;-66
2021/04/23 01:26:09;;;;;;;6.53;1.45;;;2.20;81.50;;;;;;5034110;28;20049;-65
2021/04/23 01:28:38;;;;;;;10.32;2.08;;;2.20;81.50;;;;;;5029158;28;20368;-66
2021/04/23 01:31:08;;;;;;;6.53;1.88;;;2.20;81.90;;;;;;5030059;28;20045;-66
2021/04/23 01:33:38;;;;;;;6.38;2.42;;;2.10;81.90;;;;;;5029869;28;20249;-65
2021/04/23 01:36:07;;;;;;;3.25;1.52;;;2.20;81.90;;;;;;5032152;28;20096;-65
2021/04/23 01:38:37;;;;;;;5.78;1.90;;;2.20;82.00;;;;;;5030939;28;20060;-65
2021/04/23 01:41:07;;;;;;;5.40;2.13;;;2.10;81.90;;;;;;5035032;28;20071;-65
2021/04/23 01:43:35;;;;;;;5.47;1.90;;;2.00;82.20;;;;;;5035548;28;20053;-65
2021/04/23 01:46:06;;;;;;;5.28;1.92;;;2.00;82.20;;;;;;5034932;28;20359;-65
2021/04/23 01:48:33;;;;;;;9.25;2.47;;;2.00;82.30;;;;;;5029297;28;20117;-65
2021/04/23 01:51:01;;;;;;;5.57;2.65;;;1.90;82.00;;;;;;5032152;28;20334;-66
2021/04/23 01:53:31;;;;;;;;;;;1.90;82.10;;;;;;5030659;28;20091;-65
2021/04/23 01:56:00;;;;;;;3.85;1.85;;;1.80;82.30;;;;;;5034508;28;20563;-67
2021/04/23 01:58:34;;;;;;;4.97;1.40;;;1.80;82.40;;;;;;5035323;28;20053;-65
2021/04/23 02:01:01;;;;;;;3.38;1.60;;;1.80;82.30;;;;;;5029218;28;20407;-65
2021/04/23 02:03:31;;;;;;;4.63;1.60;;;1.70;82.50;;;;;;5035041;28;20111;-64
2021/04/23 02:05:58;;;;;;;1.85;0.80;;;1.70;82.50;;;;;;5034050;28;20061;-64
2021/04/23 02:08:26;;;;;;;4.68;1.77;;;1.70;82.30;;;;;;5032913;28;20045;-65
2021/04/23 02:10:58;;;;;;;4.47;1.27;;;1.80;82.60;;;;;;5031427;28;20228;-65
2021/04/23 02:13:28;;;;;;;5.72;1.27;;;1.70;82.50;;;;;;5033232;28;20113;-64
2021/04/23 02:15:56;;;;;;;3.25;1.52;;;1.70;82.40;;;;;;5031118;28;20348;-66
2021/04/23 02:18:24;;;;;;;4.63;1.65;;;1.80;82.50;;;;;;5034759;28;20064;-65
2021/04/23 02:20:51;;;;;;;6.60;2.20;;;1.70;82.70;;;;;;5031317;28;20064;-65
2021/04/23 02:23:20;;;;;;;6.60;1.70;;;1.70;82.60;;;;;;5034591;28;20053;-65
2021/04/23 02:25:49;;;;;;;6.18;2.60;;;1.70;83.00;;;;;;5035140;28;20121;-65
2021/04/23 02:28:17;;;;;;;4.82;1.70;;;1.70;83.00;;;;;;5032787;28;20049;-65
2021/04/23 02:30:49;;;;;;;7.22;1.45;;;1.70;83.50;;;;;;5030576;28;20100;-65
2021/04/23 02:33:20;;;;;;;4.93;1.80;;;1.70;83.40;;;;;;5035764;28;20072;-65
2021/04/23 02:35:49;;;;;;;6.63;1.85;;;1.60;83.30;;;;;;5036374;28;20056;-65
2021/04/23 02:38:15;;;;;;;2.45;1.13;;;1.50;83.10;;;;;;5036560;28;20108;-66
2021/04/23 02:40:43;;;;;;;6.25;1.95;;;1.50;83.30;;;;;;5037761;28;20053;-65
2021/04/23 02:43:15;;;;;;;7.50;1.58;;;1.50;82.90;;;;;;5036774;28;20114;-66
2021/04/23 02:45:43;;;;;;;3.55;1.27;;;1.50;83.20;;;;;;5037974;28;20041;-64
2021/04/23 02:48:13;;;;;;;4.80;1.70;;;1.50;83.00;;;;;;5032143;28;20109;-65
2021/04/23 02:50:41;;;;;;;7.88;1.85;;;1.50;82.80;;;;;;5015511;28;20225;-65
2021/04/23 02:53:09;;;;;;;3.75;1.63;;;1.50;83.00;;;;;;5036306;28;20120;-67
2021/04/23 02:55:36;;;;;;;2.72;1.27;;;1.40;82.90;;;;;;5037097;28;20045;-66
2021/04/23 02:58:06;;;;;;;5.70;1.98;;;1.40;83.30;;;;;;5035923;28;20112;-65
2021/04/23 03:00:35;;;;;;;3.53;1.90;;;1.30;83.70;;;;;;5033401;28;20041;-65
2021/04/23 03:03:04;;;;;;;6.07;2.08;;;1.30;83.90;;;;;;5034409;28;21057;-65
2021/04/23 03:05:33;;;;;;;8.13;2.28;;;1.30;84.20;;;;;;5033477;28;20655;-65
2021/04/23 03:08:00;;;;;;;6.25;1.65;;;1.40;84.00;;;;;;5037894;28;21057;-64
2021/04/23 03:10:32;;;;;;;4.32;1.60;;;1.20;83.90;;;;;;5035762;28;20122;-65
2021/04/23 03:13:05;;;;;;;4.95;1.50;;;1.20;84.40;;;;;;5035911;28;20443;-65
2021/04/23 03:15:32;;;;;;;4.75;1.73;;;1.30;84.40;;;;;;5035854;28;20112;-65
2021/04/23 03:17:59;;;;;;;5.00;1.75;;;1.30;84.50;;;;;;5036525;28;21206;-64
2021/04/23 03:20:28;;;;;;;4.20;1.67;;;1.30;84.40;;;;;;5035117;28;20053;-65
2021/04/23 03:22:57;;;;;;;4.60;2.00;;;1.30;84.70;;;;;;5033975;28;20053;-65
2021/04/23 03:25:30;;;;;;;3.67;2.00;;;1.30;84.70;;;;;;5034624;28;20057;-65
2021/04/23 03:28:00;;;;;;;6.88;2.42;;;1.30;84.40;;;;;;5035266;28;20057;-66
2021/04/23 03:30:33;;;;;;;4.30;2.03;;;1.30;84.70;;;;;;5033375;28;20400;-66
2021/04/23 03:33:01;;;;;;;7.07;1.80;;;1.30;84.80;;;;;;5036773;28;20741;-65
2021/04/23 03:35:29;;;;;;;5.53;3.17;;;1.30;84.90;;;;;;5031034;28;20049;-64
2021/04/23 03:37:58;;;;;;;4.50;1.92;;;1.20;84.90;;;;;;5028982;28;20045;-66
2021/04/23 03:40:27;;;;;;;7.85;2.25;;;1.20;84.70;;;;;;5029705;28;20050;-66
2021/04/23 03:42:54;;;;;;;7.95;1.98;;;1.20;84.80;;;;;;5013783;28;20071;-65
2021/04/23 03:45:24;;;;;;;5.75;1.90;;;1.20;85.00;;;;;;5031036;28;20116;-65
2021/04/23 03:47:52;;;;;;;7.47;2.67;;;1.20;85.10;;;;;;5028571;28;21004;-66
2021/04/23 03:50:28;;;;;;;4.60;1.92;;;1.10;85.30;;;;;;5027468;28;20065;-65
2021/04/23 03:52:57;;;;;;;4.68;2.67;;;1.00;85.30;;;;;;5027023;28;20041;-65
2021/04/23 03:55:28;;;;;;;6.38;2.47;;;1.00;85.50;;;;;;5013186;28;20057;-65
2021/04/23 03:57:55;;;;;;;5.28;3.17;;;0.90;85.80;;;;;;5028000;28;20045;-65
2021/04/23 04:00:25;;;;;;;9.57;2.92;;;0.80;86.00;;;;;;5027049;28;20053;-66
2021/04/23 04:02:53;;;;;;;3.83;1.90;;;0.80;86.50;;;;;;5029067;28;20095;-65
2021/04/23 04:05:20;;;;;;;10.52;3.08;;;0.80;86.20;;;;;;5027468;28;20069;-66
2021/04/23 04:07:47;;;;;;;9.45;2.72;;;0.90;86.20;;;;;;5028187;28;20057;-65
2021/04/23 04:10:18;;;;;;;3.80;1.75;;;0.80;85.90;;;;;;5030678;28;20124;-64
2021/04/23 04:12:45;;;;;;;7.82;2.53;;;0.80;86.00;;;;;;5029296;28;20069;-65
2021/04/23 04:15:13;;;;;;;6.00;2.88;;;0.90;85.70;;;;;;5031656;28;20133;-65
2021/04/23 04:17:40;;;;;;;10.32;3.03;;;0.90;85.30;;;;;;5031272;28;23189;-66
2021/04/23 04:20:10;;;;;;;5.47;2.22;;;0.80;85.90;;;;;;5030555;28;20269;-65
2021/04/23 04:22:38;;;;;;;6.45;1.90;;;0.80;85.50;;;;;;5028409;28;20041;-65
2021/04/23 04:25:07;;;;;;;8.20;2.53;;;0.90;85.50;;;;;;5031720;28;20147;-65
2021/04/23 04:27:35;;;;;;;7.07;2.50;;;0.90;85.20;;;;;;5029472;28;20112;-66
2021/04/23 04:30:08;;;;;;;10.68;2.05;;;1.00;85.30;;;;;;5031473;28;20120;-65
2021/04/23 04:32:35;;;;;;;10.63;2.80;;;1.00;85.20;;;;;;5028340;28;20060;-66
2021/04/23 04:35:10;;;;;;;7.90;2.85;;;1.10;85.00;;;;;;5026433;28;20056;-66
2021/04/23 04:37:38;;;;;;;5.55;2.65;;;1.00;85.30;;;;;;5027014;28;20112;-65
2021/04/23 04:40:08;;;;;;;7.88;2.40;;;1.10;85.30;;;;;;5028323;28;20088;-65
2021/04/23 04:42:37;;;;;;;4.25;2.47;;;1.10;85.40;;;;;;5030885;28;20053;-65
2021/04/23 04:45:11;;;;;;;8.00;3.53;;;1.10;85.40;;;;;;5033533;28;20341;-66
2021/04/23 04:47:38;;;;;;;6.20;2.58;;;1.10;85.50;;;;;;5027311;28;20106;-65
2021/04/23 04:50:11;;;;;;;5.78;3.30;;;1.20;85.10;;;;;;5030600;28;20167;-65
2021/04/23 04:52:38;;;;;;;8.60;3.00;;;1.20;84.90;;;;;;5029118;28;20150;-66
2021/04/23 04:55:07;;;;;;;5.85;2.53;;;1.20;84.90;;;;;;5030633;28;20045;-66
2021/04/23 04:57:36;;;;;;;7.00;2.78;;;1.20;85.10;;;;;;5028683;28;20092;-67
2021/04/23 05:00:10;;;;;;;6.43;2.97;;;1.20;85.30;;;;;;5029175;28;20053;-65
2021/04/23 05:02:37;;;;;;;5.78;2.22;;;1.10;85.70;;;;;;5030826;28;20061;-66
2021/04/23 05:05:07;;;;;;;7.20;2.90;;;1.20;85.30;;;;;;5031585;28;20060;-65
2021/04/23 05:07:34;;;;;;;12.35;2.58;;;1.20;85.20;;;;;;5014039;28;20186;-65
2021/04/23 05:10:08;;;;;;;6.50;2.92;;;1.30;85.60;;;;;;5028686;28;20037;-66
2021/04/23 05:12:36;;;;;;;6.47;2.70;;;1.40;85.00;;;;;;5028257;28;20045;-65
2021/04/23 05:15:03;;;;;;;5.20;2.50;;;1.40;84.90;;;;;;5028514;28;20041;-65
2021/04/23 05:17:30;;;;;;;9.68;2.17;;;1.50;84.80;;;;;;5028220;28;20068;-66
2021/04/23 05:19:59;;;;;;;4.75;2.50;;;1.50;84.60;;;;;;5027425;28;20564;-64
2021/04/23 05:22:26;;;;;;;6.10;3.10;;;1.60;84.40;;;;;;5028491;28;20061;-64
2021/04/23 05:24:53;;;;;;;7.22;3.10;;;1.60;84.30;;;;;;5029314;28;20168;-66
2021/04/23 05:27:20;;;;;;;7.15;3.22;;;1.70;84.20;;;;;;5024679;28;20113;-65
2021/04/23 05:29:48;;;;;;;6.90;2.53;;;1.70;84.20;;;;;;5029212;28;20069;-65
2021/04/23 05:32:15;;;;;;;7.40;2.88;;;1.70;84.00;;;;;;5031749;28;20434;-65
2021/04/23 05:34:42;;;;;;;8.20;2.55;;;1.80;83.80;;;;;;5027024;28;20361;-66
2021/04/23 05:37:11;;;;;;;7.82;2.80;;;1.80;83.60;;;;;;5029458;28;20061;-65
2021/04/23 05:39:42;;;;;;;5.15;1.80;;;1.90;83.60;;;;;;5027189;28;20305;-65
2021/04/23 05:42:11;;;;;;;9.53;3.87;;;1.90;83.50;;;;;;4993169;28;20049;-64
2021/04/23 05:44:38;;;;;;;9.43;2.53;;;2.00;83.40;;;;;;1005638;28;10001956;-66
2021/04/23 05:47:07;;;;;;;6.15;2.63;;;2.00;83.20;;;;;;5030271;28;20144;-65
2021/04/23 05:49:34;;;;;;;7.05;4.03;;;2.10;82.90;;;;;;5024942;28;20183;-66
2021/04/23 05:52:04;;;;;;;5.32;2.70;;;2.20;82.60;;;;;;5027841;28;20053;-65
2021/04/23 05:54:31;;;;;;;14.13;3.23;;;2.30;82.40;;;;;;5027077;28;20103;-66
2021/04/23 05:56:58;;;;;;;7.78;3.10;;;2.40;82.00;;;;;;5026557;28;20845;-65
2021/04/23 05:59:25;;;;;;;6.55;2.45;;;2.40;81.70;;;;;;5028267;28;20053;-65
2021/04/23 06:01:52;;;;;;;6.40;2.75;;;2.50;81.70;;;;;;5026853;28;20053;-65
2021/04/23 06:04:20;;;;;;;12.07;2.25;;;2.50;81.60;;;;;;5029448;28;20053;-65
2021/04/23 06:06:47;;;;;;;9.77;3.83;;;2.60;81.40;;;;;;5031130;28;20140;-65
2021/04/23 06:09:14;;;;;;;11.02;4.45;;;2.60;81.00;;;;;;5028297;28;20054;-65
2021/04/23 06:11:42;;;;;;;8.10;3.22;;;2.60;81.10;;;;;;5029575;28;20125;-66
2021/04/23 06:14:09;;;;;;;7.60;3.30;;;2.70;80.80;;;;;;5034070;28;20056;-66
2021/04/23 06:16:36;;;;;;;6.88;2.58;;;2.90;80.40;;;;;;5032361;28;20642;-65
2021/04/23 06:19:05;;;;;;;7.22;3.28;;;2.90;80.10;;;;;;5034860;28;20056;-67
2021/04/23 06:21:34;;;;;;;6.28;2.55;;;3.10;80.10;;;;;;5031145;28;20057;-66
2021/04/23 06:24:01;;;;;;;10.95;3.15;;;3.20;79.70;;;;;;5033921;28;20504;-65
2021/04/23 06:26:32;;;;;;;5.55;2.40;;;3.30;79.60;;;;;;5032854;28;20051;-65
2021/04/23 06:28:59;;;;;;;4.78;2.33;;;3.40;79.20;;;;;;5033038;28;20956;-65
2021/04/23 06:31:26;;;;;;;12.32;2.70;;;3.50;79.00;;;;;;5033230;28;20060;-66
2021/04/23 06:33:53;;;;;;;5.88;2.83;;;3.50;78.70;;;;;;5042082;28;20069;-65
2021/04/23 06:36:21;;;;;;;9.32;2.80;;;3.70;78.40;;;;;;5052442;28;20044;-66
2021/04/23 06:38:50;;;;;;;8.57;2.75;;;3.80;78.40;;;;;;5052676;28;20134;-65
2021/04/23 06:41:17;;;;;;;5.68;2.72;;;3.90;77.70;;;;;;5050214;28;20263;-65
2021/04/23 06:43:44;;;;;;;4.72;2.45;;;4.00;77.20;;;;;;5056386;28;20049;-65
2021/04/23 06:46:12;;;;;;;7.30;2.95;;;4.10;77.00;;;;;;5055284;28;20051;-65
2021/04/23 06:48:39;;;;;;;11.50;2.83;;;4.20;76.80;;;;;;5053391;28;20073;-66
2021/04/23 06:51:06;;;;;;;9.68;2.45;;;4.20;76.20;;;;;;5054908;28;20051;-65
2021/04/23 06:53:34;;;;;;;8.80;2.58;;;4.40;76.10;;;;;;5054460;28;20063;-65
2021/04/23 06:56:02;;;;;;;6.45;2.63;;;4.40;75.70;;;;;;5052923;28;20119;-65
2021/04/23 06:58:30;;;;;;;8.48;2.45;;;4.60;75.60;;;;;;5052842;28;20428;-64
2021/04/23 07:00:58;;;;;;;9.32;2.55;;;4.70;75.60;;;;;;5045752;28;20779;-65
2021/04/23 07:03:25;;;;;;;8.30;2.70;;;4.70;74.70;;;;;;5050250;28;20645;-65
2021/04/23 07:05:54;;;;;;;7.82;3.08;;;4.90;74.90;;;;;;5032715;28;20072;-65
2021/04/23 07:08:22;;;;;;;8.82;3.50;;;5.00;74.10;;;;;;5051230;28;20439;-66
2021/04/23 07:10:48;;;;;;;7.32;3.00;;;5.00;73.90;;;;;;5050691;28;20045;-65
2021/04/23 07:13:17;;;;;;;9.15;2.65;;;5.10;74.50;;;;;;5049772;28;20056;-66
2021/04/23 07:15:44;;;;;;;7.53;3.10;;;5.30;74.00;;;;;;5029712;28;20581;-65
2021/04/23 07:18:11;;;;;;;8.18;2.08;;;5.50;73.70;;;;;;5050761;28;20324;-66
2021/04/23 07:20:39;;;;;;;6.13;2.80;;;5.60;72.40;;;;;;5050115;28;20111;-65
2021/04/23 07:23:06;;;;;;;7.68;3.03;;;5.70;71.80;;;;;;5051271;28;20083;-65
2021/04/23 07:25:34;;;;;;;9.43;2.20;;;5.90;72.60;;;;;;5042388;28;20060;-66
2021/04/23 07:28:01;;;;;;;4.95;2.03;;;6.00;71.90;;;;;;5049476;28;20112;-66
2021/04/23 07:30:36;;;;;;;8.27;3.20;;;6.20;71.40;;;;;;5051961;28;20049;-65
2021/04/23 07:33:06;;;;;;;7.32;2.55;;;6.30;70.70;;;;;;5052985;28;20052;-65
2021/04/23 07:35:33;;;;;;;6.82;2.60;;;6.40;71.40;;;;;;5049395;28;20444;-66
2021/04/23 07:38:01;;;;;;;11.88;4.15;;;6.50;71.00;;;;;;5049933;28;20329;-65
2021/04/23 07:40:42;;;;;;;7.60;2.53;;;6.70;70.00;;;;;;5053678;28;20123;-66
2021/04/23 07:43:09;;;;;;;8.07;2.50;;;6.90;68.90;;;;;;5051952;28;20057;-65
2021/04/23 07:45:37;;;;;;;6.18;2.50;;;7.10;67.70;;;;;;5049727;28;20052;-65
2021/04/23 07:48:06;;;;;;;11.60;1.73;;;7.20;67.60;;;;;;5057980;28;21334;-65
2021/04/23 07:50:33;;;;;;;8.27;1.83;;;7.30;67.00;;;;;;5054263;28;20083;-65
2021/04/23 07:53:00;;;;;;;7.95;2.88;;;7.50;66.30;;;;;;5054290;28;20669;-65
2021/04/23 07:55:28;;;;;;;10.27;2.88;;;7.60;65.70;;;;;;5055058;28;20072;-66
2021/04/23 07:57:55;;;;;;;9.43;3.15;;;7.60;64.40;;;;;;5056282;28;20283;-66
2021/04/23 08:00:26;;;;;;;6.70;2.85;;;7.60;64.70;;;;;;5048386;28;20141;-63
2021/04/23 08:02:57;;;;;;;7.70;2.33;;;7.70;64.80;;;;;;5052362;28;20095;-66
2021/04/23 08:05:24;;;;;;;8.13;3.42;;;7.80;64.10;;;;;;5052149;28;20072;-65
2021/04/23 08:07:51;;;;;;;11.00;3.00;;;7.90;63.90;;;;;;5054701;28;20052;-65
2021/04/23 08:10:20;;;;;;;7.85;2.40;;;8.00;63.40;;;;;;5055088;28;20068;-63
2021/04/23 08:12:51;;;;;;;7.05;2.55;;;8.10;62.20;;;;;;5053426;28;20336;-64
2021/04/23 08:15:19;;;;;;;6.47;2.58;;;8.20;62.90;;;;;;5053526;28;20056;-64
2021/04/23 08:17:47;;;;;;;8.73;3.03;;;8.50;62.20;;;;;;5058462;28;20072;-65
2021/04/23 08:20:18;;;;;;;5.93;2.72;;;8.60;62.10;;;;;;5054949;28;20239;-65
2021/04/23 08:22:45;;;;;;;8.60;2.72;;;8.70;61.90;;;;;;5054775;28;20339;-65
2021/04/23 08:25:14;;;;;;;7.30;2.53;;;8.90;60.40;;;;;;5056950;28;20052;-65
2021/04/23 08:27:41;;;;;;;6.68;2.05;;;9.00;60.40;;;;;;5057253;28;20064;-65
2021/04/23 08:30:10;;;;;;;7.72;3.03;;;9.00;59.50;;;;;;5057415;28;20045;-64
2021/04/23 08:32:37;;;;;;;6.95;2.53;;;9.10;59.90;;;;;;5057096;28;20306;-64
2021/04/23 08:35:06;;;;;;;9.25;2.58;;;9.20;59.00;;;;;;5058944;28;20051;-64
2021/04/23 08:37:34;;;;;;;4.72;2.22;;;9.20;57.50;;;;;;5058693;28;20075;-65
2021/04/23 08:40:06;;;;;;;9.43;2.90;;;9.20;57.80;;;;;;5058944;28;20076;-66
2021/04/23 08:42:34;;;;;;;12.55;2.83;;;9.20;57.80;;;;;;5056836;28;20269;-68
2021/04/23 08:45:06;;;;;;;6.38;2.53;;;9.40;57.50;;;;;;5059198;28;20052;-65
2021/04/23 08:47:34;;;;;;;11.68;2.65;;;9.50;57.00;;;;;;5059047;28;20049;-64
2021/04/23 08:50:06;;;;;;;11.18;3.20;;;9.60;56.30;;;;;;5055525;28;20108;-64
2021/04/23 08:52:35;;;;;;;7.30;2.47;;;9.60;56.00;;;;;;5052600;28;20398;-65
2021/04/23 08:55:04;;;;;;;6.32;1.80;;;9.80;56.10;;;;;;5055550;28;20345;-65
2021/04/23 08:57:32;;;;;;;;;;;9.90;54.10;;;;;;5054588;28;20110;-65
2021/04/23 09:00:03;;;;;;;4.55;1.92;;;10.00;53.70;;;;;;5053289;28;20315;-65
2021/04/23 09:02:35;;;;;;;9.50;2.72;;;9.80;52.80;;;;;;5050225;28;20048;-65
2021/04/23 09:05:05;;;;;;;18.10;3.00;;;9.90;53.50;;;;;;5053358;28;20324;-64
2021/04/23 09:07:32;;;;;;;9.30;2.00;;;10.10;53.80;;;;;;5051971;28;20074;-66
2021/04/23 09:10:09;;;;;;;5.82;2.28;;;10.10;52.50;;;;;;5052544;28;20915;-64
2021/04/23 09:12:37;;;;;;;9.23;2.53;;;10.10;53.10;;;;;;5054707;28;20400;-65
2021/04/23 09:15:06;;;;;;;4.75;2.05;;;10.20;52.00;;;;;;5053878;28;20048;-64
2021/04/23 09:17:33;;;;;;;4.80;2.17;;;10.30;51.50;;;;;;5053157;28;20060;-64
2021/04/23 09:20:00;;;;;;;9.13;3.58;;;10.30;51.70;;;;;;5055717;28;20261;-65
2021/04/23 09:22:40;;;;;;;7.00;2.60;;;10.20;51.40;;;;;;5056977;28;20041;-65
2021/04/23 09:25:10;;;;;;;7.72;2.55;;;10.40;52.10;;;;;;5051930;28;20205;-64
2021/04/23 09:27:41;;;;;;;6.25;3.08;;;10.60;52.00;;;;;;5055000;28;20405;-65
2021/04/23 09:30:08;;;;;;;;;;;10.80;51.00;;;;;;5052507;28;20037;-65
2021/04/23 09:32:38;;;;;;;6.03;2.33;;;10.90;51.70;;;;;;5055713;28;19925;-65
2021/04/23 09:35:13;;;;;;;6.30;2.90;;;11.00;50.40;;;;;;5052320;28;20053;-65
2021/04/23 09:37:43;;;;;;;9.30;2.63;;;11.10;49.40;;;;;;5054371;28;20040;-65
2021/04/23 09:40:14;;;;;;;12.43;2.60;;;11.20;49.30;;;;;;5053409;28;20129;-65
2021/04/23 09:42:49;;;;;;;8.15;2.47;;;11.40;49.80;;;;;;5057831;28;20086;-65
2021/04/23 09:45:17;;;;;;;7.10;2.15;;;11.40;49.80;;;;;;5059725;28;20140;-64
2021/04/23 09:47:46;;;;;;;7.30;2.85;;;11.60;49.40;;;;;;5057241;28;20363;-64
2021/04/23 09:50:15;;;;;;;8.77;2.88;;;11.70;49.60;;;;;;5056415;28;20056;-65
2021/04/23 09:52:48;;;;;;;8.52;2.88;;;11.80;48.50;;;;;;5056897;28;20075;-65
2021/04/23 09:55:17;;;;;;;7.65;2.90;;;12.00;48.20;;;;;;5071695;28;20045;-65
2021/04/23 09:57:53;;;;;;;6.40;2.05;;;12.20;46.70;;;;;;5058610;28;20122;-64
2021/04/23 10:00:24;;;;;;;5.43;2.42;;;12.40;45.80;;;;;;5055241;28;20048;-65
2021/04/23 10:02:54;;;;;;;8.07;2.53;;;12.60;45.00;;;;;;5061041;28;20067;-64
2021/04/23 10:05:32;;;;;;;7.18;2.38;;;12.90;44.60;;;;;;5056890;28;20045;-65
2021/04/23 10:07:59;;;;;;;6.82;2.53;;;13.40;43.50;;;;;;5058120;28;20818;-65
2021/04/23 10:10:27;;;;;;;7.03;2.47;;;14.10;41.20;;;;;;5058778;28;20139;-65
2021/04/23 10:12:57;;;;;;;8.82;2.50;;;14.80;40.60;;;;;;5056681;28;22098;-64
2021/04/23 10:15:25;;;;;;;5.90;2.37;;;16.20;38.30;;;;;;5060995;28;20041;-64
2021/04/23 10:17:54;;;;;;;5.97;2.17;;;17.50;36.40;;;;;;5058570;28;20155;-66
2021/04/23 10:20:25;;;;;;;7.85;2.60;;;18.20;34.30;;;;;;5058816;28;20041;-64
2021/04/23 10:22:52;;;;;;;6.85;2.40;;;19.40;32.20;;;;;;5057420;28;20053;-65
2021/04/23 10:25:20;;;;;;;8.52;2.55;;;20.20;30.90;;;;;;5058085;28;20102;-65
2021/04/23 10:27:50;;;;;;;5.13;2.28;;;20.90;29.50;;;;;;5055440;28;20056;-65
2021/04/23 10:30:19;;;;;;;8.68;2.55;;;21.20;27.50;;;;;;5061244;28;20052;-65
2021/04/23 10:32:48;;;;;;;10.30;3.67;;;22.20;26.20;;;;;;5060684;28;20061;-66
2021/04/23 10:35:15;;;;;;;7.97;2.38;;;22.80;25.50;;;;;;5060935;28;20053;-65
2021/04/23 10:37:43;;;;;;;5.90;2.67;;;22.70;26.00;;;;;;5061347;28;20044;-65
2021/04/23 10:40:12;;;;;;;9.70;2.65;;;23.90;24.40;;;;;;5053894;28;20052;-64
2021/04/23 10:42:54;;;;;;;5.13;2.30;;;24.00;23.80;;;;;;5056551;28;20076;-65
2021/04/23 10:45:34;;;;;;;9.45;2.30;;;24.70;22.60;;;;;;5054643;28;20716;-64
2021/04/23 10:48:02;;;;;;;;;;;25.10;22.40;;;;;;5057733;28;21107;-65
2021/04/23 10:50:39;;;;;;;8.43;2.70;;;25.30;22.00;;;;;;5055123;28;20096;-65
2021/04/23 10:53:10;;;;;;;5.50;2.78;;;25.10;22.40;;;;;;5055214;28;20173;-65
2021/04/23 10:55:40;;;;;;;8.38;2.70;;;25.50;22.40;;;;;;5055872;28;20108;-65
2021/04/23 10:58:38;;;;;;;6.28;2.47;;;25.50;22.10;;;;;;5057852;28;20048;-65
2021/04/23 11:01:23;;;;;;;5.47;2.20;;;25.80;21.90;;;;;;5051325;28;20547;-66
2021/04/23 11:04:04;;;;;;;6.30;2.38;;;27.00;20.10;;;;;;5056511;28;20128;-65
2021/04/23 11:06:33;;;;;;;7.60;3.03;;;27.30;19.90;;;;;;5057414;28;20174;-65
2021/04/23 11:09:24;;;;;;;4.57;1.90;;;27.00;19.70;;;;;;5057346;28;20313;-64
2021/04/23 11:12:14;;;;;;;5.70;1.92;;;26.70;19.60;;;;;;5038890;28;20056;-65
2021/04/23 11:14:44;;;;;;;5.35;1.90;;;27.10;18.90;;;;;;5059127;28;20056;-64
2021/04/23 11:17:33;;;;;;;4.82;1.95;;;27.00;19.30;;;;;;5057975;28;20048;-66
2021/04/23 11:20:03;;;;;;;9.10;2.90;;;27.70;18.70;;;;;;5056935;28;20365;-65
2021/04/23 11:22:31;;;;;;;6.50;1.88;;;27.50;18.50;;;;;;5054565;28;20295;-66
2021/04/23 11:25:16;;;;;;;6.57;2.63;;;28.00;18.20;;;;;;5055406;28;20387;-66
2021/04/23 11:28:08;;;;;;;8.57;2.38;;;28.50;17.50;;;;;;5058078;28;20116;-66
2021/04/23 11:30:56;;;;;;;5.60;2.50;;;28.40;17.20;;;;;;5034190;28;20052;-66
2021/04/23 11:33:46;;;;;;;5.03;1.90;;;28.00;17.10;;;;;;5053639;28;20148;-65
2021/04/23 11:36:24;;;;;;;4.53;1.90;;;28.40;17.80;;;;;;5060659;28;21030;-66
2021/04/23 11:39:06;;;;;;;6.15;2.45;;;28.70;17.60;;;;;;5058718;28;20295;-66
2021/04/23 11:41:33;;;;;;;8.10;2.45;;;28.00;17.00;;;;;;5057773;28;20410;-66
2021/04/23 11:44:03;;;;;;;5.43;1.88;;;28.30;16.80;;;;;;5056806;28;20524;-66
2021/04/23 11:46:51;;;;;;;5.20;2.25;;;28.90;15.90;;;;;;5057191;28;20067;-66
2021/04/23 11:49:18;;;;;;;5.90;2.47;;;29.50;16.00;;;;;;5058544;28;20742;-65
2021/04/23 11:51:49;;;;;;;5.25;2.08;;;29.50;15.70;;;;;;5056526;28;20061;-64
2021/04/23 11:54:29;;;;;;;8.32;2.15;;;29.20;16.60;;;;;;5057129;28;20044;-65
2021/04/23 11:56:56;;;;;;;;;;;29.60;16.40;;;;;;5057886;28;20033;-65
2021/04/23 11:59:23;;;;;;;5.05;1.98;;;30.50;13.80;;;;;;5054686;28;20116;-66
2021/04/23 12:01:50;;;;;;;5.82;2.20;;;30.10;15.30;;;;;;5053335;28;20060;-64
2021/04/23 12:04:39;;;;;;;5.70;1.95;;;31.10;15.10;;;;;;5059148;28;20091;-65
2021/04/23 12:07:09;;;;;;;5.90;2.08;;;31.00;14.90;;;;;;5054581;28;20850;-65
2021/04/23 12:09:36;;;;;;;7.03;2.50;;;30.60;14.90;;;;;;5052911;28;20041;-65
2021/04/23 12:12:06;;;;;;;8.70;2.42;;;30.80;15.00;;;;;;5055649;28;20405;-66
2021/04/23 12:14:54;;;;;;;6.60;2.30;;;30.90;14.40;;;;;;5053088;28;20040;-65
2021/04/23 12:17:22;;;;;;;5.28;2.70;;;31.30;15.10;;;;;;5043394;28;20056;-64
2021/04/23 12:19:50;;;;;;;6.10;2.00;;;30.90;14.90;;;;;;5050662;28;20044;-65
2021/04/23 12:22:17;;;;;;;5.25;1.80;;;31.40;14.70;;;;;;5058639;28;20055;-65
2021/04/23 12:24:44;;;;;;;5.68;1.77;;;31.30;14.70;;;;;;5058979;28;20352;-65
2021/04/23 12:27:11;;;;;;;4.03;2.05;;;31.70;13.90;;;;;;5053192;28;20130;-65
2021/04/23 12:29:38;;;;;;;4.70;2.25;;;31.70;14.30;;;;;;5051758;28;20061;-66
2021/04/23 12:32:05;;;;;;;5.78;2.50;;;32.00;13.90;;;;;;5052579;28;20052;-64
2021/04/23 12:34:33;;;;;;;7.25;2.13;;;31.30;14.20;;;;;;5057528;28;20061;-66
2021/04/23 12:37:12;;;;;;;4.63;2.30;;;31.10;15.00;;;;;;5055153;28;20045;-65
2021/04/23 12:39:39;;;;;;;5.90;2.47;;;31.70;14.70;;;;;;5053958;28;20232;-64
2021/04/23 12:42:06;;;;;;;5.22;1.83;;;31.50;14.90;;;;;;5054147;28;20080;-64
2021/04/23 12:44:37;;;;;;;5.97;1.98;;;30.90;15.60;;;;;;5054572;28;20060;-65
2021/04/23 12:47:10;;;;;;;4.72;2.10;;;31.50;14.60;;;;;;5049536;28;20108;-65
2021/04/23 12:49:41;;;;;;;4.68;2.25;;;31.90;14.30;;;;;;5054733;28;20056;-66
2021/04/23 12:52:11;;;;;;;4.30;1.58;;;32.10;13.70;;;;;;5056201;28;20119;-65
2021/04/23 12:54:40;;;;;;;6.40;2.30;;;31.90;13.40;;;;;;5054596;28;20148;-65
2021/04/23 12:57:11;;;;;;;5.90;2.42;;;32.10;14.00;;;;;;5054730;28;20402;-66
2021/04/23 12:59:41;;;;;;;10.50;2.35;;;32.60;14.10;;;;;;5054720;28;20072;-65
2021/04/23 13:02:10;;;;;;;5.05;2.10;;;33.00;13.90;;;;;;5051158;28;20060;-64
2021/04/23 13:04:38;;;;;;;5.55;2.17;;;32.50;15.30;;;;;;5050523;28;20321;-64
2021/04/23 13:07:14;;;;;;;3.70;1.80;;;32.00;14.20;;;;;;5051150;28;20057;-65
2021/04/23 13:09:41;;;;;;;6.15;2.20;;;32.00;14.20;;;;;;5049980;28;20046;-64